Time;durP1;ratioP1;P1;durP2;ratioP2;P2;SDS_P1;SDS_P2;PMS_P1;PMS_P2;Temp;Humidity;BMP_temperature;BMP_pressure;BME280_temperature;BME280_humidity;BME280_pressure;Samples;Min_cycle;Max_cycle;Signal;HPM_P1;HPM_P2
2023/10/27 00:00:31;;;;;;;6.82;6.13;;;23.70;94.60;;;;;;6320383;27;89166;-71
2023/10/27 00:03:33;;;;;;;7.65;6.68;;;23.70;94.70;;;;;;6311416;27;89431;-70
2023/10/27 00:06:37;;;;;;;7.28;6.25;;;23.70;94.70;;;;;;6319589;27;89015;-70
2023/10/27 00:09:39;;;;;;;6.80;6.10;;;23.70;94.70;;;;;;6326116;27;89502;-71
2023/10/27 00:12:41;;;;;;;7.28;6.57;;;23.70;94.70;;;;;;6333379;27;89229;-71
2023/10/27 00:15:43;;;;;;;6.30;5.70;;;23.70;94.70;;;;;;6322924;27;87197;-71
2023/10/27 00:18:45;;;;;;;6.90;6.20;;;23.70;94.70;;;;;;6326020;27;89391;-71
2023/10/27 00:21:48;;;;;;;7.43;6.15;;;23.70;94.80;;;;;;6317824;27;89094;-72
2023/10/27 00:24:50;;;;;;;7.43;6.65;;;23.70;94.80;;;;;;6322430;27;90112;-70
2023/10/27 00:27:52;;;;;;;6.88;6.07;;;23.60;94.90;;;;;;6320647;27;89097;-71
2023/10/27 00:30:54;;;;;;;7.18;6.47;;;23.60;94.80;;;;;;6312398;27;89109;-70
2023/10/27 00:33:56;;;;;;;6.55;5.95;;;23.60;94.90;;;;;;6321672;27;89085;-70
2023/10/27 00:36:59;;;;;;;6.75;6.05;;;23.60;94.90;;;;;;6323252;27;89389;-71
2023/10/27 00:40:01;;;;;;;7.43;6.22;;;23.60;94.90;;;;;;6308744;27;89226;-70
2023/10/27 00:43:04;;;;;;;6.45;5.82;;;23.60;94.90;;;;;;6321645;27;88389;-71
2023/10/27 00:46:07;;;;;;;6.80;6.10;;;23.60;95.10;;;;;;6325740;27;87511;-71
2023/10/27 00:49:09;;;;;;;6.35;5.70;;;23.60;95.10;;;;;;6329268;27;89053;-70
2023/10/27 00:52:13;;;;;;;6.22;5.60;;;23.60;95.00;;;;;;6319446;27;89280;-70
2023/10/27 00:55:15;;;;;;;6.18;5.57;;;23.60;95.00;;;;;;6332750;27;90098;-71
2023/10/27 00:58:18;;;;;;;6.53;5.82;;;23.60;95.50;;;;;;6316530;27;89070;-71
2023/10/27 01:01:21;;;;;;;6.63;6.03;;;23.60;95.10;;;;;;6326534;27;89315;-71
2023/10/27 01:04:23;;;;;;;6.43;5.72;;;23.60;95.10;;;;;;6326679;27;87937;-71
2023/10/27 01:07:26;;;;;;;7.13;6.43;;;23.60;95.10;;;;;;6330301;27;89068;-71
2023/10/27 01:10:28;;;;;;;6.35;5.75;;;23.60;95.10;;;;;;6333140;27;89038;-71
2023/10/27 01:13:30;;;;;;;6.90;5.97;;;23.60;95.10;;;;;;6319552;27;89154;-71
2023/10/27 01:16:32;;;;;;;6.40;5.63;;;23.60;95.10;;;;;;6325964;27;88403;-70
2023/10/27 01:19:36;;;;;;;6.55;5.85;;;23.60;95.10;;;;;;6332270;27;89004;-71
2023/10/27 01:22:43;;;;;;;6.05;5.45;;;23.60;95.20;;;;;;6329592;27;87971;-71
2023/10/27 01:25:45;;;;;;;7.75;6.15;;;23.50;95.20;;;;;;6315739;27;89908;-71
2023/10/27 01:28:47;;;;;;;6.28;5.68;;;23.60;95.20;;;;;;6307956;27;87918;-71
2023/10/27 01:31:51;;;;;;;6.00;5.40;;;23.50;95.20;;;;;;6322374;27;89062;-71
2023/10/27 01:34:53;;;;;;;6.50;5.63;;;23.50;95.20;;;;;;6314213;27;89410;-71
2023/10/27 01:37:56;;;;;;;6.32;5.72;;;23.60;95.30;;;;;;6332797;27;89106;-71
2023/10/27 01:40:58;;;;;;;5.80;5.30;;;23.50;95.30;;;;;;6326862;27;89074;-71
2023/10/27 01:44:00;;;;;;;6.13;5.38;;;23.50;95.20;;;;;;6316973;27;89391;-71
2023/10/27 01:47:02;;;;;;;5.75;5.15;;;23.50;95.20;;;;;;6333483;27;88362;-71
2023/10/27 01:50:07;;;;;;;5.50;5.00;;;23.50;95.20;;;;;;6322475;27;89144;-71
2023/10/27 01:53:10;;;;;;;6.20;5.60;;;23.50;95.20;;;;;;6314664;27;89049;-71
2023/10/27 01:56:12;;;;;;;6.68;5.88;;;23.50;95.20;;;;;;6320275;27;90086;-72
2023/10/27 01:59:14;;;;;;;5.93;5.32;;;23.50;95.20;;;;;;6325106;27;88243;-70
2023/10/27 02:02:16;;;;;;;5.50;5.00;;;23.50;95.20;;;;;;6317206;27;89037;-71
2023/10/27 02:05:18;;;;;;;5.75;5.25;;;23.50;95.30;;;;;;6317267;27;89154;-72
2023/10/27 02:08:21;;;;;;;6.00;5.40;;;23.50;95.30;;;;;;6333811;27;89325;-72
2023/10/27 02:11:23;;;;;;;7.13;5.85;;;23.50;95.30;;;;;;6328796;27;89072;-72
2023/10/27 02:14:26;;;;;;;6.03;5.43;;;23.50;95.20;;;;;;6336944;27;89433;-72
2023/10/27 02:17:28;;;;;;;5.88;5.28;;;23.50;95.30;;;;;;6336420;27;88714;-72
2023/10/27 02:20:30;;;;;;;6.05;5.45;;;23.50;95.30;;;;;;6332321;27;89149;-72
2023/10/27 02:23:34;;;;;;;6.00;5.35;;;23.40;95.30;;;;;;6333009;27;89142;-72
2023/10/27 02:26:36;;;;;;;5.60;5.10;;;23.40;95.40;;;;;;6332179;27;90024;-72
2023/10/27 02:29:38;;;;;;;6.00;5.40;;;23.40;95.40;;;;;;6325515;27;89157;-72
2023/10/27 02:32:40;;;;;;;6.53;5.93;;;23.40;95.40;;;;;;6326401;27;89061;-72
2023/10/27 02:35:42;;;;;;;6.50;5.90;;;23.40;95.40;;;;;;6316847;27;89172;-73
2023/10/27 02:38:48;;;;;;;6.20;5.60;;;23.40;95.30;;;;;;6334925;27;87754;-72
2023/10/27 02:41:50;;;;;;;6.25;5.65;;;23.40;95.20;;;;;;6334879;27;89026;-72
2023/10/27 02:44:52;;;;;;;6.35;5.75;;;23.40;95.20;;;;;;6332501;27;89566;-72
2023/10/27 02:47:54;;;;;;;5.95;5.35;;;23.40;95.20;;;;;;6318010;27;88403;-72
2023/10/27 02:50:56;;;;;;;6.10;5.55;;;23.40;95.20;;;;;;6322296;27;89044;-72
2023/10/27 02:54:00;;;;;;;6.03;5.43;;;23.50;95.20;;;;;;6322411;27;89014;-72
2023/10/27 02:57:02;;;;;;;6.13;5.53;;;23.40;95.20;;;;;;6323957;27;90097;-72
2023/10/27 03:00:06;;;;;;;7.03;6.00;;;23.40;95.20;;;;;;6320044;27;89028;-72
2023/10/27 03:03:10;;;;;;;6.80;5.90;;;23.40;95.20;;;;;;6321005;27;89288;-72
2023/10/27 03:06:13;;;;;;;6.25;5.65;;;23.40;95.30;;;;;;6323676;27;88189;-72
2023/10/27 03:09:17;;;;;;;6.43;5.68;;;23.40;95.40;;;;;;6316299;27;89218;-72
2023/10/27 03:12:19;;;;;;;6.82;6.10;;;23.40;95.40;;;;;;6326492;27;88961;-72
2023/10/27 03:15:21;;;;;;;6.30;5.70;;;23.40;95.40;;;;;;6329248;27;89058;-72
2023/10/27 03:18:23;;;;;;;6.90;6.20;;;23.40;95.40;;;;;;6335438;27;88358;-72
2023/10/27 03:21:25;;;;;;;6.22;5.63;;;23.40;95.40;;;;;;6327255;27;87948;-72
2023/10/27 03:24:28;;;;;;;6.60;6.00;;;23.40;95.50;;;;;;6320108;27;89135;-71
2023/10/27 03:27:32;;;;;;;6.68;6.07;;;23.40;95.50;;;;;;6319977;27;90090;-72
2023/10/27 03:30:34;;;;;;;7.00;6.30;;;23.40;95.50;;;;;;6321742;27;89023;-70
2023/10/27 03:33:36;;;;;;;6.95;6.25;;;23.40;95.60;;;;;;6332853;27;89026;-71
2023/10/27 03:36:38;;;;;;;7.47;6.53;;;23.40;95.60;;;;;;6323415;27;89049;-71
2023/10/27 03:39:42;;;;;;;6.90;6.30;;;23.40;95.50;;;;;;6309147;27;89215;-71
2023/10/27 03:42:44;;;;;;;8.05;6.75;;;23.40;95.60;;;;;;6331550;27;89368;-71
2023/10/27 03:45:48;;;;;;;7.18;6.47;;;23.40;95.60;;;;;;6315817;27;88984;-71
2023/10/27 03:48:50;;;;;;;7.20;6.50;;;23.40;95.70;;;;;;6322085;27;88245;-71
2023/10/27 03:51:52;;;;;;;7.20;6.50;;;23.30;95.70;;;;;;6320411;27;87990;-71
2023/10/27 03:54:56;;;;;;;7.00;6.30;;;23.30;95.70;;;;;;6312715;27;89088;-72
2023/10/27 03:58:13;;;;;;;6.78;6.18;;;23.30;95.80;;;;;;6316888;27;90026;-71
2023/10/27 04:01:15;;;;;;;6.57;5.95;;;23.40;95.70;;;;;;6315121;27;89131;-71
2023/10/27 04:04:17;;;;;;;7.10;6.40;;;23.30;95.70;;;;;;6309605;27;89150;-71
2023/10/27 04:07:19;;;;;;;7.10;6.50;;;23.40;95.70;;;;;;6324385;27;88955;-73
2023/10/27 04:10:22;;;;;;;6.88;6.28;;;23.30;95.60;;;;;;6321828;27;89169;-72
2023/10/27 04:13:24;;;;;;;7.10;6.40;;;23.30;95.60;;;;;;6331402;27;89120;-71
2023/10/27 04:16:26;;;;;;;7.47;6.68;;;23.30;95.60;;;;;;6332805;27;89144;-70
2023/10/27 04:19:28;;;;;;;7.28;6.40;;;23.40;95.60;;;;;;6334267;27;88669;-72
2023/10/27 04:22:30;;;;;;;6.70;6.10;;;23.40;95.60;;;;;;6325433;27;89267;-71
2023/10/27 04:25:35;;;;;;;7.07;6.38;;;23.40;95.60;;;;;;6332808;27;89049;-71
2023/10/27 04:28:37;;;;;;;6.90;6.20;;;23.40;95.60;;;;;;6331398;27;90222;-70
2023/10/27 04:31:39;;;;;;;6.85;6.25;;;23.40;95.50;;;;;;6333171;27;89291;-71
2023/10/27 04:34:41;;;;;;;6.70;6.10;;;23.40;95.50;;;;;;6320088;27;90941;-71
2023/10/27 04:37:43;;;;;;;7.32;6.63;;;23.50;95.50;;;;;;6319905;27;89372;-71
2023/10/27 04:40:48;;;;;;;7.20;6.50;;;23.50;95.50;;;;;;6321330;27;89452;-70
2023/10/27 04:43:52;;;;;;;6.80;6.10;;;23.50;95.40;;;;;;6325993;27;89057;-70
2023/10/27 04:46:54;;;;;;;7.22;6.53;;;23.50;95.40;;;;;;6331556;27;89064;-70
2023/10/27 04:49:56;;;;;;;6.63;6.03;;;23.50;95.40;;;;;;6331666;27;88296;-70
2023/10/27 04:52:57;;;;;;;6.68;6.07;;;23.60;95.40;;;;;;6329154;27;89137;-70
2023/10/27 04:56:01;;;;;;;6.65;6.05;;;23.60;95.30;;;;;;6321593;27;89398;-70
2023/10/27 04:59:03;;;;;;;7.05;6.45;;;23.60;95.70;;;;;;6323606;27;90398;-69
2023/10/27 05:02:08;;;;;;;6.55;5.95;;;23.60;95.30;;;;;;6322084;27;88979;-70
2023/10/27 05:05:11;;;;;;;6.57;5.97;;;23.60;95.30;;;;;;6318743;27;89398;-69
2023/10/27 05:08:13;;;;;;;6.30;5.70;;;23.60;95.30;;;;;;6316420;27;89118;-69
2023/10/27 05:11:17;;;;;;;6.57;5.97;;;23.60;95.20;;;;;;6319358;27;89070;-69
2023/10/27 05:14:19;;;;;;;6.35;5.75;;;23.60;95.20;;;;;;6321184;27;89048;-69
2023/10/27 05:17:21;;;;;;;6.30;5.70;;;23.60;95.20;;;;;;6327414;27;89135;-69
2023/10/27 05:20:23;;;;;;;6.60;5.78;;;23.60;95.10;;;;;;6313832;27;88377;-70
2023/10/27 05:23:25;;;;;;;5.90;5.40;;;23.60;95.10;;;;;;6328699;27;89078;-69
2023/10/27 05:26:28;;;;;;;6.22;5.63;;;23.60;95.10;;;;;;6310200;27;89145;-69
2023/10/27 05:29:31;;;;;;;6.00;5.50;;;23.60;95.00;;;;;;6307312;27;89980;-69
2023/10/27 05:32:33;;;;;;;5.68;5.18;;;23.70;95.10;;;;;;6327294;27;89114;-68
2023/10/27 05:35:35;;;;;;;6.03;5.45;;;23.70;95.10;;;;;;6329618;27;89022;-68
2023/10/27 05:38:37;;;;;;;6.10;5.50;;;23.70;95.10;;;;;;6329210;27;89037;-68
2023/10/27 05:41:41;;;;;;;6.38;5.78;;;23.60;95.00;;;;;;6321592;27;89062;-68
2023/10/27 05:44:43;;;;;;;6.25;5.65;;;23.70;95.00;;;;;;6323894;27;89055;-68
2023/10/27 05:47:46;;;;;;;5.63;5.10;;;23.70;95.00;;;;;;6323199;27;88213;-69
2023/10/27 05:50:48;;;;;;;5.25;4.75;;;23.60;95.00;;;;;;6317016;27;88814;-69
2023/10/27 05:53:50;;;;;;;5.63;5.13;;;23.60;95.00;;;;;;6311960;27;89154;-70
2023/10/27 05:56:53;;;;;;;5.00;4.60;;;23.70;95.00;;;;;;6321170;27;89099;-67
2023/10/27 05:59:58;;;;;;;5.40;4.90;;;23.70;95.30;;;;;;6325157;27;90031;-69
2023/10/27 06:03:00;;;;;;;4.97;4.57;;;23.70;95.20;;;;;;6313423;27;89118;-69
2023/10/27 06:06:03;;;;;;;5.07;4.57;;;23.70;95.10;;;;;;6321741;27;89056;-70
2023/10/27 06:09:05;;;;;;;5.90;4.78;;;23.70;95.10;;;;;;6332234;27;89580;-70
2023/10/27 06:12:09;;;;;;;5.28;4.78;;;23.70;95.00;;;;;;6328226;27;88993;-70
2023/10/27 06:15:11;;;;;;;5.70;4.97;;;23.70;95.00;;;;;;6323971;27;89502;-69
2023/10/27 06:18:15;;;;;;;6.65;4.90;;;23.80;95.00;;;;;;6334638;27;89001;-70
2023/10/27 06:21:17;;;;;;;5.22;4.72;;;23.80;94.90;;;;;;6334025;27;87240;-71
2023/10/27 06:24:19;;;;;;;7.53;5.20;;;23.80;95.00;;;;;;6335737;27;88041;-69
2023/10/27 06:27:22;;;;;;;6.75;5.22;;;23.80;95.00;;;;;;6329914;27;89010;-70
2023/10/27 06:30:24;;;;;;;7.90;5.20;;;23.80;95.00;;;;;;6323369;27;90012;-69
2023/10/27 06:33:27;;;;;;;7.22;5.53;;;23.80;95.10;;;;;;6321115;27;88992;-68
2023/10/27 06:36:32;;;;;;;9.88;6.18;;;23.80;95.20;;;;;;6329584;27;89081;-67
2023/10/27 06:39:34;;;;;;;7.85;5.20;;;23.90;96.70;;;;;;6318767;27;89047;-68
2023/10/27 06:42:37;;;;;;;8.45;5.32;;;23.90;96.70;;;;;;6327635;27;89441;-68
2023/10/27 06:45:39;;;;;;;7.18;5.25;;;23.90;95.80;;;;;;6322620;27;89050;-66
2023/10/27 06:48:41;;;;;;;7.82;5.13;;;23.90;95.50;;;;;;6334194;27;89059;-67
2023/10/27 06:51:43;;;;;;;17.67;7.45;;;23.90;95.40;;;;;;6317336;27;88231;-67
2023/10/27 06:54:46;;;;;;;11.10;6.03;;;24.00;97.60;;;;;;6310277;27;89082;-67
2023/10/27 06:57:49;;;;;;;11.20;6.40;;;24.00;98.00;;;;;;6325922;27;89387;-67
2023/10/27 07:00:51;;;;;;;11.65;6.35;;;24.00;96.80;;;;;;6317357;27;89042;-67
2023/10/27 07:03:53;;;;;;;18.73;8.18;;;24.00;96.40;;;;;;6325689;27;87944;-67
2023/10/27 07:06:55;;;;;;;12.15;6.10;;;24.00;99.90;;;;;;6321126;27;89080;-67
2023/10/27 07:09:57;;;;;;;11.82;5.90;;;24.00;97.70;;;;;;6330276;27;89185;-67
2023/10/27 07:13:00;;;;;;;14.40;5.68;;;24.00;97.10;;;;;;6334226;27;88711;-67
2023/10/27 07:16:06;;;;;;;13.20;5.45;;;24.00;96.60;;;;;;6312096;27;89152;-67
2023/10/27 07:19:08;;;;;;;8.93;4.65;;;24.00;95.80;;;;;;6321669;27;88343;-67
2023/10/27 07:22:10;;;;;;;9.75;5.20;;;24.00;95.20;;;;;;6330048;27;88631;-67
2023/10/27 07:25:13;;;;;;;7.65;4.50;;;24.00;94.90;;;;;;6323466;27;89058;-67
2023/10/27 07:28:16;;;;;;;11.57;5.78;;;24.00;94.90;;;;;;6322189;27;90300;-67
2023/10/27 07:31:18;;;;;;;11.68;5.82;;;24.10;99.90;;;;;;6331360;27;89998;-67
2023/10/27 07:34:20;;;;;;;11.05;5.40;;;24.20;99.90;;;;;;6316137;27;89147;-67
2023/10/27 07:37:23;;;;;;;9.23;4.95;;;24.30;99.90;;;;;;6319677;27;89350;-67
2023/10/27 07:40:25;;;;;;;9.85;5.20;;;24.40;98.90;;;;;;6312188;27;89122;-67
2023/10/27 07:43:28;;;;;;;9.10;4.88;;;24.50;98.20;;;;;;6326932;27;89085;-67
2023/10/27 07:46:31;;;;;;;10.77;5.18;;;24.50;97.60;;;;;;6310901;27;89047;-67
2023/10/27 07:49:33;;;;;;;9.32;4.88;;;24.50;97.40;;;;;;6310404;27;88198;-66
2023/10/27 07:52:35;;;;;;;8.73;4.80;;;24.60;97.20;;;;;;6325875;27;87398;-67
2023/10/27 07:55:37;;;;;;;12.32;4.90;;;24.50;97.10;;;;;;6331096;27;89503;-67
2023/10/27 07:58:41;;;;;;;13.43;4.70;;;24.50;96.70;;;;;;6324342;27;89144;-67
2023/10/27 08:01:43;;;;;;;11.00;5.18;;;24.50;96.30;;;;;;6328543;27;89900;-67
2023/10/27 08:04:45;;;;;;;10.65;5.35;;;24.50;96.20;;;;;;6330646;27;89022;-67
2023/10/27 08:07:47;;;;;;;9.70;4.45;;;24.50;96.20;;;;;;6318387;27;89085;-68
2023/10/27 08:10:49;;;;;;;6.90;4.18;;;24.50;96.70;;;;;;6317868;27;88908;-68
2023/10/27 08:13:53;;;;;;;9.65;4.43;;;24.40;96.70;;;;;;6332992;27;89457;-68
2023/10/27 08:16:55;;;;;;;8.13;4.30;;;24.40;96.70;;;;;;6332302;27;89721;-68
2023/10/27 08:19:56;;;;;;;7.85;4.18;;;24.40;96.60;;;;;;6320994;27;89374;-68
2023/10/27 08:22:59;;;;;;;9.40;4.63;;;24.30;96.90;;;;;;6332689;27;88439;-68
2023/10/27 08:26:01;;;;;;;8.82;4.20;;;24.40;97.10;;;;;;6320930;27;89067;-68
2023/10/27 08:29:04;;;;;;;10.98;4.43;;;24.40;97.10;;;;;;6331689;27;87927;-67
2023/10/27 08:32:07;;;;;;;7.45;4.40;;;24.30;97.20;;;;;;6319774;27;89982;-67
2023/10/27 08:35:09;;;;;;;8.32;4.60;;;24.30;97.00;;;;;;6329917;27;88967;-68
2023/10/27 08:38:12;;;;;;;6.43;4.10;;;24.30;96.80;;;;;;6321058;27;89236;-67
2023/10/27 08:41:14;;;;;;;8.32;4.00;;;24.30;97.20;;;;;;6320016;27;87938;-67
2023/10/27 08:44:18;;;;;;;7.50;4.38;;;24.30;97.60;;;;;;6315271;27;89066;-67
2023/10/27 08:47:20;;;;;;;7.90;4.47;;;24.30;97.50;;;;;;6329265;27;89670;-67
2023/10/27 08:50:23;;;;;;;8.82;4.45;;;24.30;97.40;;;;;;6311947;27;89092;-67
2023/10/27 08:53:25;;;;;;;11.90;5.15;;;24.20;97.30;;;;;;6323588;27;88328;-68
2023/10/27 08:56:28;;;;;;;12.73;5.10;;;24.20;97.20;;;;;;6322653;27;89413;-68
2023/10/27 08:59:31;;;;;;;6.68;4.30;;;24.20;97.20;;;;;;6328934;27;89226;-67
2023/10/27 09:02:34;;;;;;;8.18;4.40;;;24.30;97.20;;;;;;6329895;27;90082;-68
2023/10/27 09:05:38;;;;;;;9.20;4.70;;;24.20;97.10;;;;;;6329726;27;89034;-67
2023/10/27 09:08:40;;;;;;;7.95;4.55;;;24.20;97.10;;;;;;6331275;27;89014;-68
2023/10/27 09:11:43;;;;;;;7.20;4.18;;;24.30;97.10;;;;;;6327938;27;89077;-68
2023/10/27 09:14:59;;;;;;;9.13;5.18;;;24.30;97.10;;;;;;6316428;27;89126;-67
2023/10/27 09:18:01;;;;;;;8.50;5.20;;;24.20;97.10;;;;;;6318263;27;89098;-68
2023/10/27 09:21:04;;;;;;;7.57;4.70;;;24.20;97.10;;;;;;6322480;27;89300;-68
2023/10/27 09:24:08;;;;;;;6.18;4.50;;;24.20;97.10;;;;;;6315407;27;88260;-68
2023/10/27 09:27:10;;;;;;;9.52;5.10;;;24.20;97.00;;;;;;6317980;27;89019;-68
2023/10/27 09:30:25;;;;;;;9.35;5.18;;;24.20;97.00;;;;;;6321476;27;89098;-68
2023/10/27 09:33:27;;;;;;;7.00;4.90;;;24.20;97.00;;;;;;6318861;27;90012;-68
2023/10/27 09:36:29;;;;;;;7.43;5.22;;;24.20;97.00;;;;;;6315419;27;89715;-68
2023/10/27 09:39:31;;;;;;;8.02;4.85;;;24.20;97.00;;;;;;6310544;27;89054;-68
2023/10/27 09:42:37;;;;;;;8.30;5.22;;;24.20;97.00;;;;;;6325204;27;88931;-68
2023/10/27 09:45:47;;;;;;;6.78;5.20;;;24.10;97.00;;;;;;6313947;27;89080;-68
2023/10/27 09:48:58;;;;;;;7.97;5.15;;;24.20;97.00;;;;;;6322387;27;88982;-68
2023/10/27 09:52:01;;;;;;;7.05;5.00;;;24.20;96.90;;;;;;6315589;27;87974;-68
2023/10/27 09:55:03;;;;;;;7.05;5.28;;;24.20;97.00;;;;;;6331022;27;88332;-68
2023/10/27 09:58:05;;;;;;;7.93;5.20;;;24.10;96.90;;;;;;6330323;27;89055;-68
2023/10/27 10:01:10;;;;;;;6.65;5.22;;;24.20;97.00;;;;;;6332061;27;88963;-67
2023/10/27 10:04:12;;;;;;;7.15;5.00;;;24.20;97.00;;;;;;6324024;27;89973;-68
2023/10/27 10:07:14;;;;;;;6.97;5.18;;;24.10;97.00;;;;;;6311112;27;88974;-68
2023/10/27 10:10:24;;;;;;;7.60;5.07;;;24.20;97.00;;;;;;6325659;27;88987;-68
2023/10/27 10:13:36;;;;;;;6.13;5.07;;;24.10;97.00;;;;;;6321340;27;89148;-67
2023/10/27 10:16:45;;;;;;;6.57;5.22;;;24.10;97.00;;;;;;6305966;27;89429;-68
2023/10/27 10:19:48;;;;;;;6.82;5.10;;;24.20;97.00;;;;;;6311406;27;89005;-68
2023/10/27 10:22:53;;;;;;;7.88;5.50;;;24.10;97.00;;;;;;6315254;27;89109;-68
2023/10/27 10:25:57;;;;;;;8.10;5.45;;;24.10;97.00;;;;;;6306350;27;88370;-68
2023/10/27 10:29:29;;;;;;;6.82;5.28;;;24.10;97.00;;;;;;6313722;27;89042;-68
2023/10/27 10:32:34;;;;;;;7.68;5.35;;;24.10;97.00;;;;;;6311703;27;89528;-67
2023/10/27 10:35:38;;;;;;;7.85;5.60;;;24.10;97.00;;;;;;6319929;27;90264;-68
2023/10/27 10:38:41;;;;;;;8.88;5.75;;;24.10;97.00;;;;;;6333907;27;88039;-67
2023/10/27 10:42:03;;;;;;;7.70;5.82;;;24.10;97.00;;;;;;6310358;27;89084;-67
2023/10/27 10:45:06;;;;;;;6.82;5.53;;;24.10;97.00;;;;;;6321151;27;89188;-68
2023/10/27 10:48:09;;;;;;;6.88;5.50;;;24.10;97.00;;;;;;6321874;27;89091;-68
2023/10/27 10:51:14;;;;;;;7.90;5.85;;;24.10;97.00;;;;;;6331697;27;89024;-67
2023/10/27 10:54:17;;;;;;;6.70;5.50;;;24.10;97.00;;;;;;6325950;27;89063;-68
2023/10/27 10:57:21;;;;;;;8.38;5.85;;;24.10;97.00;;;;;;6322958;27;88281;-68
2023/10/27 11:00:23;;;;;;;8.13;5.90;;;24.10;97.00;;;;;;6334130;27;89070;-67
2023/10/27 11:03:27;;;;;;;7.38;5.75;;;24.10;96.90;;;;;;6326412;27;88999;-68
2023/10/27 11:06:30;;;;;;;8.52;6.32;;;24.10;96.90;;;;;;6317777;27;89113;-68
2023/10/27 11:09:32;;;;;;;6.15;5.53;;;24.10;96.90;;;;;;6326943;27;89014;-68
2023/10/27 11:12:34;;;;;;;8.48;6.20;;;24.10;96.90;;;;;;6324255;27;89000;-68
2023/10/27 11:15:48;;;;;;;6.93;5.53;;;24.10;96.90;;;;;;6325164;27;89384;-67
2023/10/27 11:18:53;;;;;;;7.28;5.40;;;24.10;96.90;;;;;;6318401;27;88988;-68
2023/10/27 11:21:55;;;;;;;6.55;5.43;;;24.10;96.80;;;;;;6314426;27;89023;-68
2023/10/27 11:24:57;;;;;;;7.68;5.82;;;24.10;96.80;;;;;;6329827;27;89256;-68
2023/10/27 11:28:21;;;;;;;6.88;5.53;;;24.10;96.80;;;;;;6334203;27;88302;-68
2023/10/27 11:31:29;;;;;;;6.97;5.38;;;24.10;96.80;;;;;;6315180;27;89023;-67
2023/10/27 11:34:32;;;;;;;6.43;5.65;;;24.00;96.80;;;;;;6324728;27;87941;-68
2023/10/27 11:37:34;;;;;;;7.40;5.38;;;24.10;96.70;;;;;;6328962;27;90058;-67
2023/10/27 11:40:36;;;;;;;7.90;6.03;;;24.10;96.60;;;;;;6307962;27;89094;-67
2023/10/27 11:43:38;;;;;;;6.65;5.45;;;24.10;96.60;;;;;;6317888;27;87935;-68
2023/10/27 11:46:46;;;;;;;5.97;5.20;;;24.10;96.60;;;;;;6320987;27;89070;-68
2023/10/27 11:49:50;;;;;;;6.85;5.57;;;24.10;96.50;;;;;;6316086;27;89023;-68
2023/10/27 11:52:52;;;;;;;6.63;5.30;;;24.10;96.50;;;;;;6309581;27;88056;-67
2023/10/27 11:55:54;;;;;;;6.30;5.13;;;24.00;96.40;;;;;;6334013;27;89052;-68
2023/10/27 11:58:56;;;;;;;7.38;5.20;;;24.00;96.40;;;;;;6332110;27;88657;-67
2023/10/27 12:01:58;;;;;;;5.70;5.07;;;24.10;96.40;;;;;;6314743;27;89096;-67
2023/10/27 12:05:02;;;;;;;6.68;5.30;;;24.00;96.70;;;;;;6309436;27;90239;-67
2023/10/27 12:08:04;;;;;;;6.90;5.47;;;24.10;96.30;;;;;;6312467;27;90123;-67
2023/10/27 12:11:06;;;;;;;7.90;5.72;;;24.00;96.20;;;;;;6328925;27;89074;-67
2023/10/27 12:14:10;;;;;;;6.97;5.68;;;24.00;96.20;;;;;;6323123;27;89221;-67
2023/10/27 12:17:12;;;;;;;7.30;5.82;;;24.10;96.20;;;;;;6307259;27;89065;-67
2023/10/27 12:20:17;;;;;;;7.47;6.28;;;24.00;96.20;;;;;;6308793;27;89084;-68
2023/10/27 12:23:19;;;;;;;8.30;6.05;;;24.00;96.20;;;;;;6328164;27;89029;-67
2023/10/27 12:26:22;;;;;;;8.57;6.13;;;24.00;96.20;;;;;;6319324;27;87949;-68
2023/10/27 12:29:26;;;;;;;7.20;5.93;;;24.00;96.10;;;;;;6324743;27;87218;-67
2023/10/27 12:32:32;;;;;;;6.90;6.20;;;24.00;96.10;;;;;;6312555;27;88947;-68
2023/10/27 12:35:37;;;;;;;7.18;6.35;;;24.00;96.00;;;;;;6310556;27;88568;-68
2023/10/27 12:38:41;;;;;;;7.70;6.20;;;24.10;96.00;;;;;;6310817;27;90179;-67
2023/10/27 12:41:43;;;;;;;8.32;6.47;;;24.00;96.00;;;;;;6328944;27;89101;-68
2023/10/27 12:44:45;;;;;;;8.82;6.65;;;24.00;96.00;;;;;;6320687;27;89368;-68
2023/10/27 12:47:49;;;;;;;8.88;6.82;;;24.00;95.90;;;;;;6307300;27;88981;-68
2023/10/27 12:50:52;;;;;;;7.22;6.25;;;24.00;95.90;;;;;;6319001;27;89432;-68
2023/10/27 12:53:55;;;;;;;7.68;6.80;;;24.00;95.90;;;;;;6318140;27;90237;-68
2023/10/27 12:56:57;;;;;;;7.47;6.35;;;24.00;96.00;;;;;;6322464;27;89167;-68
2023/10/27 12:59:59;;;;;;;9.25;6.80;;;24.00;95.90;;;;;;6326811;27;88481;-68
2023/10/27 13:03:02;;;;;;;8.50;7.10;;;24.00;95.90;;;;;;6319147;27;89539;-67
2023/10/27 13:06:06;;;;;;;8.00;6.70;;;24.00;96.00;;;;;;6319245;27;89689;-67
2023/10/27 13:09:08;;;;;;;7.75;6.90;;;24.00;96.00;;;;;;6330037;27;90277;-67
2023/10/27 13:12:11;;;;;;;7.78;6.53;;;24.00;96.00;;;;;;6319182;27;89079;-67
2023/10/27 13:15:14;;;;;;;10.02;7.30;;;24.00;96.00;;;;;;6317756;27;89032;-67
2023/10/27 13:18:16;;;;;;;8.18;6.97;;;24.00;96.40;;;;;;6319729;27;89160;-67
2023/10/27 13:21:20;;;;;;;7.80;6.40;;;24.00;96.00;;;;;;6318529;27;89069;-68
2023/10/27 13:24:21;;;;;;;7.88;7.00;;;24.00;96.00;;;;;;6315563;27;89097;-67
2023/10/27 13:27:24;;;;;;;7.78;6.97;;;24.00;96.00;;;;;;6320054;27;89240;-67
2023/10/27 13:30:25;;;;;;;8.13;7.22;;;24.00;96.00;;;;;;6307883;27;88383;-67
2023/10/27 13:33:30;;;;;;;8.90;7.13;;;24.00;96.00;;;;;;6321003;27;87977;-68
2023/10/27 13:36:33;;;;;;;8.25;6.88;;;24.00;96.00;;;;;;6331822;27;88688;-67
2023/10/27 13:39:35;;;;;;;9.10;7.25;;;24.00;96.00;;;;;;6331977;27;90004;-67
2023/10/27 13:42:37;;;;;;;8.77;7.57;;;24.00;96.00;;;;;;6307035;27;89043;-67
2023/10/27 13:45:39;;;;;;;8.73;7.15;;;24.00;96.00;;;;;;6325279;27;89037;-67
2023/10/27 13:48:41;;;;;;;8.05;7.13;;;24.00;96.00;;;;;;6330295;27;89062;-68
2023/10/27 13:51:44;;;;;;;8.35;7.45;;;24.00;96.00;;;;;;6330086;27;89027;-67
2023/10/27 13:54:47;;;;;;;7.78;6.93;;;24.00;95.90;;;;;;6326451;27;88099;-67
2023/10/27 13:57:49;;;;;;;7.88;7.07;;;24.00;95.90;;;;;;6325506;27;89036;-67
2023/10/27 14:00:52;;;;;;;8.25;7.20;;;24.00;95.90;;;;;;6313094;27;87618;-67
2023/10/27 14:03:54;;;;;;;8.68;7.35;;;24.00;95.90;;;;;;6326428;27;88963;-67
2023/10/27 14:06:58;;;;;;;9.40;7.97;;;24.00;95.90;;;;;;6335625;27;89142;-67
2023/10/27 14:09:59;;;;;;;9.98;8.57;;;24.00;95.90;;;;;;6328478;27;90094;-68
2023/10/27 14:13:01;;;;;;;9.68;7.85;;;24.00;95.90;;;;;;6335724;27;89096;-68
2023/10/27 14:16:05;;;;;;;9.15;8.10;;;24.00;95.90;;;;;;6323547;27;89078;-67
2023/10/27 14:19:07;;;;;;;9.32;8.05;;;24.10;95.90;;;;;;6314484;27;89101;-68
2023/10/27 14:22:10;;;;;;;10.77;8.32;;;24.00;95.90;;;;;;6321796;27;89509;-67
2023/10/27 14:25:15;;;;;;;9.50;8.07;;;24.00;95.90;;;;;;6336641;27;88037;-67
2023/10/27 14:28:17;;;;;;;9.18;8.10;;;24.00;95.90;;;;;;6322601;27;89009;-67
2023/10/27 14:31:19;;;;;;;9.73;8.40;;;24.00;95.90;;;;;;6323525;27;88344;-67
2023/10/27 14:34:21;;;;;;;9.63;8.07;;;24.00;95.90;;;;;;6315315;27;89033;-67
2023/10/27 14:37:25;;;;;;;8.68;7.78;;;24.00;95.90;;;;;;6327367;27;89044;-67
2023/10/27 14:40:27;;;;;;;9.43;8.38;;;24.00;95.90;;;;;;6316264;27;90180;-67
2023/10/27 14:43:29;;;;;;;9.75;8.73;;;24.00;95.90;;;;;;6322950;27;89158;-67
2023/10/27 14:46:32;;;;;;;9.77;8.60;;;24.00;95.90;;;;;;6315319;27;89104;-68
2023/10/27 14:49:37;;;;;;;10.85;9.07;;;24.00;95.90;;;;;;6313327;27;88964;-67
2023/10/27 14:52:42;;;;;;;9.55;8.48;;;24.00;95.90;;;;;;6322318;27;89130;-68
2023/10/27 14:55:44;;;;;;;10.40;8.98;;;24.00;95.80;;;;;;6325050;27;88987;-68
2023/10/27 14:58:53;;;;;;;10.10;9.00;;;23.90;95.80;;;;;;6320449;27;88006;-68
2023/10/27 15:01:55;;;;;;;11.10;8.93;;;24.00;95.80;;;;;;6317176;27;87217;-67
2023/10/27 15:04:57;;;;;;;10.43;8.88;;;24.00;95.80;;;;;;6325075;27;89065;-67
2023/10/27 15:08:00;;;;;;;9.63;8.63;;;24.00;95.80;;;;;;6322014;27;89064;-68
2023/10/27 15:11:02;;;;;;;10.20;9.13;;;24.00;95.80;;;;;;6334092;27;90022;-68
2023/10/27 15:14:07;;;;;;;9.93;8.60;;;24.00;95.80;;;;;;6325096;27;87999;-68
2023/10/27 15:17:09;;;;;;;9.60;8.60;;;24.00;95.80;;;;;;6311739;27;87846;-67
2023/10/27 15:20:12;;;;;;;9.93;8.93;;;24.00;95.80;;;;;;6318397;27;88261;-68
2023/10/27 15:23:15;;;;;;;10.73;9.63;;;24.00;95.70;;;;;;6318960;27;88413;-67
2023/10/27 15:26:17;;;;;;;10.63;9.20;;;24.00;95.70;;;;;;6331336;27;89479;-67
2023/10/27 15:29:21;;;;;;;11.10;9.20;;;24.00;95.70;;;;;;6320873;27;89005;-67
2023/10/27 15:32:23;;;;;;;10.20;9.07;;;23.90;95.60;;;;;;6327882;27;88458;-67
2023/10/27 15:35:25;;;;;;;9.80;8.80;;;24.00;95.70;;;;;;6319212;27;89188;-67
2023/10/27 15:38:29;;;;;;;11.05;9.63;;;24.00;95.60;;;;;;6317658;27;89194;-67
2023/10/27 15:41:32;;;;;;;11.65;9.57;;;24.00;95.60;;;;;;6311372;27;89745;-67
2023/10/27 15:44:37;;;;;;;10.55;9.40;;;24.00;95.60;;;;;;6311441;27;89038;-67
2023/10/27 15:47:40;;;;;;;10.30;9.02;;;23.90;95.60;;;;;;6334472;27;89261;-67
2023/10/27 15:50:42;;;;;;;11.35;9.65;;;23.90;95.60;;;;;;6309059;27;89835;-67